Time;durP1;ratioP1;P1;durP2;ratioP2;P2;SDS_P1;SDS_P2;PMS_P1;PMS_P2;Temp;Humidity;BMP_temperature;BMP_pressure;BME280_temperature;BME280_humidity;BME280_pressure;Samples;Min_cycle;Max_cycle;Signal;HPM_P1;HPM_P2
2023/10/10 00:02:06;;;;;;;6.78;3.40;;;19.80;55.50;;;;;;5055882;28;20184;-81
2023/10/10 00:04:35;;;;;;;5.15;2.90;;;19.80;55.50;;;;;;5056086;28;20192;-81
2023/10/10 00:07:08;;;;;;;4.03;2.90;;;19.80;55.50;;;;;;5056068;28;20201;-81
2023/10/10 00:09:35;;;;;;;5.63;3.30;;;19.80;55.60;;;;;;5055989;28;20203;-81
2023/10/10 00:12:04;;;;;;;4.90;2.92;;;19.80;55.70;;;;;;5055924;28;20206;-81
2023/10/10 00:14:31;;;;;;;6.18;3.35;;;19.70;55.50;;;;;;5055978;28;20200;-81
2023/10/10 00:16:59;;;;;;;5.25;2.80;;;19.80;55.70;;;;;;5055508;28;20688;-81
2023/10/10 00:19:30;;;;;;;6.53;3.10;;;19.70;55.60;;;;;;5055000;28;20644;-81
2023/10/10 00:21:57;;;;;;;5.93;3.17;;;19.70;55.60;;;;;;5056124;28;20192;-81
2023/10/10 00:24:30;;;;;;;4.60;3.00;;;19.70;55.60;;;;;;5055429;28;20681;-81
2023/10/10 00:27:00;;;;;;;5.10;3.08;;;19.70;55.70;;;;;;5038807;28;20635;-81
2023/10/10 00:29:28;;;;;;;5.15;3.20;;;19.70;55.60;;;;;;5055126;28;20635;-81
2023/10/10 00:32:05;;;;;;;6.18;3.22;;;19.70;55.70;;;;;;5055419;28;20605;-81
2023/10/10 00:34:37;;;;;;;6.43;3.15;;;19.70;55.70;;;;;;5057934;28;20218;-81
2023/10/10 00:37:07;;;;;;;4.70;2.72;;;19.70;55.70;;;;;;5058448;28;20656;-81
2023/10/10 00:39:37;;;;;;;7.47;3.25;;;19.70;55.70;;;;;;5057624;28;20254;-81
2023/10/10 00:42:04;;;;;;;6.47;3.05;;;19.70;55.60;;;;;;5056233;28;20206;-81
2023/10/10 00:44:34;;;;;;;6.28;3.45;;;19.60;55.60;;;;;;5055839;28;20719;-81
2023/10/10 00:47:03;;;;;;;5.35;3.33;;;19.60;55.60;;;;;;5055156;28;20207;-81
2023/10/10 00:49:34;;;;;;;5.25;3.00;;;19.60;55.60;;;;;;5055378;28;20759;-81
2023/10/10 00:52:06;;;;;;;4.75;3.08;;;19.60;55.70;;;;;;5056498;28;20203;-81
2023/10/10 00:54:40;;;;;;;5.80;3.10;;;19.60;55.70;;;;;;5054966;28;20210;-81
2023/10/10 00:57:16;;;;;;;6.55;3.10;;;19.60;55.60;;;;;;5055220;28;20195;-81
2023/10/10 00:59:47;;;;;;;8.10;3.35;;;19.60;55.60;;;;;;5054300;28;20234;-81
2023/10/10 01:02:16;;;;;;;6.38;3.13;;;19.50;55.60;;;;;;5055155;28;20200;-81
2023/10/10 01:04:55;;;;;;;6.55;2.92;;;19.60;55.70;;;;;;5054404;28;20195;-81
2023/10/10 01:07:23;;;;;;;4.60;3.00;;;19.60;55.60;;;;;;5038817;28;20205;-81
2023/10/10 01:09:55;;;;;;;4.90;3.05;;;19.60;55.70;;;;;;5055523;28;20230;-81
2023/10/10 01:12:25;;;;;;;6.40;3.08;;;19.60;55.60;;;;;;5055632;28;20202;-81
2023/10/10 01:14:55;;;;;;;4.30;3.13;;;19.50;55.60;;;;;;5056583;28;20233;-81
2023/10/10 01:17:28;;;;;;;5.15;2.97;;;19.50;55.70;;;;;;5055893;28;20287;-81
2023/10/10 01:19:58;;;;;;;4.88;2.90;;;19.60;55.80;;;;;;5040036;28;20223;-81
2023/10/10 01:22:38;;;;;;;5.70;2.90;;;19.50;55.60;;;;;;5054761;28;20195;-81
2023/10/10 01:25:29;;;;;;;6.30;3.30;;;19.50;55.60;;;;;;5055172;28;20188;-81
2023/10/10 01:27:57;;;;;;;4.68;2.83;;;19.50;55.70;;;;;;5041346;28;20203;-81
2023/10/10 01:33:06;;;;;;;5.40;2.90;;;19.50;55.70;;;;;;5054171;28;20207;-81
2023/10/10 01:35:40;;;;;;;5.75;3.00;;;19.50;55.90;;;;;;5054627;28;20199;-81
2023/10/10 01:38:13;;;;;;;5.25;3.40;;;19.40;55.70;;;;;;5053575;28;20635;-81
2023/10/10 01:40:41;;;;;;;5.32;3.10;;;19.50;55.80;;;;;;5054694;28;20666;-81
2023/10/10 01:43:10;;;;;;;7.88;3.40;;;19.50;55.80;;;;;;5055362;28;20535;-81
2023/10/10 01:45:41;;;;;;;6.65;3.10;;;19.50;55.70;;;;;;5054786;28;20654;-81
2023/10/10 01:48:11;;;;;;;5.65;3.10;;;19.50;55.70;;;;;;5038966;28;20263;-81
2023/10/10 01:50:37;;;;;;;5.00;2.95;;;19.40;55.80;;;;;;5054455;28;20222;-81
2023/10/10 01:53:09;;;;;;;4.10;2.60;;;19.40;55.70;;;;;;5054728;28;20676;-81
2023/10/10 01:55:38;;;;;;;6.47;3.35;;;19.40;55.70;;;;;;5054866;28;20629;-81
2023/10/10 01:58:11;;;;;;;7.45;3.50;;;19.40;55.70;;;;;;5054815;28;20191;-81
2023/10/10 02:00:39;;;;;;;6.40;3.20;;;19.40;55.80;;;;;;5056384;28;20739;-81
2023/10/10 02:03:07;;;;;;;5.97;3.30;;;19.40;55.90;;;;;;5054904;28;20222;-81
2023/10/10 02:05:45;;;;;;;6.32;2.80;;;19.40;55.80;;;;;;5055314;28;20290;-81
2023/10/10 02:08:16;;;;;;;7.00;3.05;;;19.40;55.90;;;;;;5053318;28;20249;-81
2023/10/10 02:10:49;;;;;;;4.35;2.70;;;19.30;55.70;;;;;;5053277;28;20215;-81
2023/10/10 02:13:17;;;;;;;7.05;3.40;;;19.30;55.80;;;;;;5053347;28;20241;-81
2023/10/10 02:15:45;;;;;;;6.40;3.30;;;19.30;55.80;;;;;;5053138;28;20229;-81
2023/10/10 02:18:14;;;;;;;4.22;3.00;;;19.30;55.80;;;;;;5036830;28;20661;-82
2023/10/10 02:20:54;;;;;;;7.35;3.30;;;19.30;55.70;;;;;;5052952;28;20670;-82
2023/10/10 02:23:32;;;;;;;5.72;3.28;;;19.30;55.80;;;;;;5053043;28;20191;-81
2023/10/10 02:26:03;;;;;;;4.18;2.63;;;19.30;55.90;;;;;;5053798;28;20187;-81
2023/10/10 02:28:47;;;;;;;5.43;3.20;;;19.30;55.70;;;;;;5053452;28;20192;-81
2023/10/10 02:31:16;;;;;;;6.15;3.25;;;19.30;55.80;;;;;;5052686;28;20309;-81
2023/10/10 02:33:49;;;;;;;5.07;3.03;;;19.30;56.00;;;;;;5037106;28;20203;-81
2023/10/10 02:36:29;;;;;;;4.15;2.97;;;19.30;55.90;;;;;;5053417;28;20202;-81
2023/10/10 02:39:01;;;;;;;5.32;3.25;;;19.30;55.80;;;;;;5053718;28;20253;-81
2023/10/10 02:41:38;;;;;;;4.97;2.90;;;19.30;55.70;;;;;;5052992;28;20265;-81
2023/10/10 02:44:09;;;;;;;6.40;3.22;;;19.30;56.50;;;;;;5052909;28;20194;-81
2023/10/10 02:46:38;;;;;;;5.13;2.78;;;19.30;55.90;;;;;;5052652;28;20188;-81
2023/10/10 02:49:21;;;;;;;6.80;3.33;;;19.20;55.80;;;;;;5052399;28;20195;-81
2023/10/10 02:51:49;;;;;;;4.93;3.17;;;19.20;55.90;;;;;;5052429;28;20219;-81
2023/10/10 02:54:32;;;;;;;4.75;3.20;;;19.30;55.70;;;;;;5052430;28;20195;-81
2023/10/10 02:57:27;;;;;;;6.40;3.33;;;19.20;55.90;;;;;;5052489;28;20195;-81
2023/10/10 02:59:59;;;;;;;7.93;3.40;;;19.20;55.90;;;;;;5054008;28;20211;-81
2023/10/10 03:02:30;;;;;;;4.82;3.05;;;19.20;55.80;;;;;;5052223;28;20199;-81
2023/10/10 03:05:07;;;;;;;4.97;2.90;;;19.20;55.90;;;;;;5052782;28;20286;-81
2023/10/10 03:07:35;;;;;;;5.57;3.05;;;19.20;55.70;;;;;;5052857;28;20226;-81
2023/10/10 03:10:22;;;;;;;4.55;2.88;;;19.20;55.90;;;;;;5052251;28;20219;-81
2023/10/10 03:12:51;;;;;;;4.38;2.83;;;19.20;55.90;;;;;;5052554;28;20195;-81
2023/10/10 03:15:28;;;;;;;4.97;2.88;;;19.20;55.90;;;;;;5056186;28;20187;-81
2023/10/10 03:18:18;;;;;;;5.53;3.35;;;19.20;56.10;;;;;;5060602;28;20206;-81
2023/10/10 03:21:05;;;;;;;6.55;3.10;;;19.20;56.10;;;;;;5068554;28;20229;-81
2023/10/10 03:23:41;;;;;;;3.92;2.83;;;19.20;56.10;;;;;;5081637;28;20183;-81
2023/10/10 03:26:18;;;;;;;6.80;3.28;;;19.20;56.00;;;;;;5068752;28;20191;-81
2023/10/10 03:28:49;;;;;;;9.05;3.63;;;19.30;55.70;;;;;;5056517;28;20187;-81
2023/10/10 03:31:31;;;;;;;5.55;2.95;;;19.30;55.70;;;;;;5056801;28;20608;-81
2023/10/10 03:34:18;;;;;;;4.85;2.60;;;19.30;55.90;;;;;;5057956;28;20574;-81
2023/10/10 03:37:03;;;;;;;4.80;2.80;;;19.40;55.80;;;;;;5056810;28;20197;-81
2023/10/10 03:39:44;;;;;;;6.57;3.17;;;19.40;55.50;;;;;;5042637;28;20682;-81
2023/10/10 05:23:48;;;;;;;4.32;3.20;;;19.20;55.40;;;;;;5033877;28;20275;-79
2023/10/10 05:26:18;;;;;;;6.10;3.00;;;19.20;55.40;;;;;;5034066;28;20609;-79
2023/10/10 05:28:46;;;;;;;4.03;2.75;;;19.20;55.50;;;;;;5034317;28;20522;-79
2023/10/10 05:31:18;;;;;;;4.78;3.47;;;19.20;55.40;;;;;;5033617;28;20265;-79
2023/10/10 05:33:47;;;;;;;4.43;3.22;;;19.10;55.30;;;;;;5033896;28;20676;-79
2023/10/10 05:36:14;;;;;;;6.68;3.38;;;19.10;55.40;;;;;;5033712;28;20196;-79
2023/10/10 05:38:42;;;;;;;4.78;3.00;;;19.10;55.60;;;;;;5034085;28;20254;-79
2023/10/10 05:41:11;;;;;;;5.13;3.08;;;19.10;55.50;;;;;;5033554;28;20273;-79
2023/10/10 05:43:39;;;;;;;7.53;3.50;;;19.10;55.60;;;;;;5034131;28;20270;-79
2023/10/10 05:46:06;;;;;;;7.00;3.53;;;19.10;55.50;;;;;;5033706;28;20214;-79
2023/10/10 05:48:35;;;;;;;6.60;3.20;;;19.10;55.50;;;;;;5033937;28;20534;-79
2023/10/10 05:51:03;;;;;;;4.57;3.17;;;19.10;55.50;;;;;;5033336;28;20291;-79
2023/10/10 05:53:32;;;;;;;6.68;3.63;;;19.10;55.50;;;;;;5033384;28;20207;-79
2023/10/10 05:56:12;;;;;;;7.60;4.03;;;19.10;55.40;;;;;;5033192;28;20211;-79
2023/10/10 05:58:43;;;;;;;5.45;3.90;;;19.10;55.40;;;;;;5033180;28;20231;-79
2023/10/10 06:01:13;;;;;;;5.88;3.60;;;19.10;55.30;;;;;;5033252;28;20212;-79
2023/10/10 06:03:41;;;;;;;7.32;3.80;;;19.10;55.30;;;;;;5033264;28;20192;-79
2023/10/10 06:06:11;;;;;;;7.10;4.07;;;19.10;55.50;;;;;;5034560;28;20289;-79
2023/10/10 06:08:38;;;;;;;7.68;3.60;;;19.10;55.30;;;;;;5032848;28;20210;-79
2023/10/10 06:11:06;;;;;;;6.72;3.50;;;19.10;55.40;;;;;;5032993;28;20212;-79
2023/10/10 06:13:39;;;;;;;4.95;3.40;;;19.20;56.00;;;;;;5033055;28;20713;-79
2023/10/10 06:16:12;;;;;;;5.97;3.33;;;19.20;55.60;;;;;;5017294;28;20192;-79
2023/10/10 06:18:44;;;;;;;6.78;3.70;;;19.20;55.50;;;;;;5032976;28;20196;-79
2023/10/10 06:21:11;;;;;;;4.80;2.95;;;19.30;55.60;;;;;;5016393;28;20269;-79
2023/10/10 06:23:41;;;;;;;5.10;3.53;;;19.30;55.60;;;;;;5032823;28;20299;-79
2023/10/10 06:26:08;;;;;;;6.03;3.17;;;19.30;55.50;;;;;;5032969;28;20204;-79
2023/10/10 06:28:42;;;;;;;5.25;3.40;;;19.30;55.50;;;;;;5032855;28;20566;-78
2023/10/10 06:31:14;;;;;;;4.63;3.40;;;19.30;55.40;;;;;;5032747;28;20677;-78
2023/10/10 06:33:44;;;;;;;5.60;3.08;;;19.30;55.40;;;;;;5032718;28;20195;-78
2023/10/10 06:41:51;;;;;;;5.82;3.45;;;19.40;55.20;;;;;;5009142;28;20228;-78
2023/10/10 06:44:31;;;;;;;6.88;3.72;;;19.40;55.10;;;;;;5032549;28;20208;-78
2023/10/10 06:47:00;;;;;;;5.50;3.28;;;19.50;55.20;;;;;;5033593;28;20196;-78
2023/10/10 06:49:43;;;;;;;5.60;3.50;;;19.50;55.20;;;;;;5032022;28;20241;-78
2023/10/10 06:52:17;;;;;;;5.47;3.42;;;19.50;55.10;;;;;;5032482;28;20187;-78
2023/10/10 06:54:53;;;;;;;4.45;3.45;;;19.50;55.00;;;;;;5033226;28;20191;-78
2023/10/10 06:57:21;;;;;;;6.13;3.88;;;19.60;55.10;;;;;;5017283;28;20643;-78
2023/10/10 06:59:50;;;;;;;4.40;3.20;;;19.60;55.00;;;;;;5032318;28;20224;-78
2023/10/10 07:02:22;;;;;;;6.57;3.70;;;19.60;54.90;;;;;;5016208;28;20243;-78
2023/10/10 07:04:52;;;;;;;4.60;3.03;;;19.70;55.00;;;;;;5032472;28;20662;-78
2023/10/10 07:07:20;;;;;;;6.40;3.42;;;19.70;55.00;;;;;;5032448;28;20203;-78
2023/10/10 07:09:48;;;;;;;5.70;3.38;;;19.70;54.90;;;;;;5032363;28;20217;-78
2023/10/10 07:12:16;;;;;;;4.10;3.25;;;19.70;54.90;;;;;;5032333;28;20705;-78
2023/10/10 07:14:44;;;;;;;6.85;3.47;;;19.70;55.00;;;;;;5015912;28;20223;-78
2023/10/10 07:17:12;;;;;;;5.68;3.60;;;19.70;54.90;;;;;;5032541;28;20250;-78
2023/10/10 07:22:35;;;;;;;7.35;3.13;;;19.80;54.80;;;;;;5112067;27;20961;-52
2023/10/10 07:25:07;;;;;;;6.28;3.55;;;19.80;54.80;;;;;;5111106;28;20272;-50
2023/10/10 07:27:35;;;;;;;4.80;3.05;;;19.90;54.90;;;;;;5109879;28;20306;-51
2023/10/10 07:30:16;;;;;;;5.97;3.55;;;19.90;54.80;;;;;;5111137;28;20189;-50
2023/10/10 07:32:44;;;;;;;5.45;3.22;;;19.90;54.80;;;;;;5109974;28;20192;-51
2023/10/10 07:35:14;;;;;;;5.15;3.55;;;20.00;54.60;;;;;;5111416;28;20201;-54
2023/10/10 07:37:44;;;;;;;7.05;3.33;;;20.00;54.60;;;;;;5109798;28;20217;-54
2023/10/10 07:40:28;;;;;;;5.78;3.47;;;20.10;54.70;;;;;;5112498;28;20185;-54
2023/10/10 07:42:59;;;;;;;6.57;3.45;;;20.10;54.60;;;;;;5111020;28;20178;-54
2023/10/10 07:45:29;;;;;;;5.53;3.55;;;20.20;55.00;;;;;;5111039;28;20197;-54
2023/10/10 07:51:05;;;;;;;5.53;3.30;;;20.30;55.00;;;;;;5109602;28;20185;-54
2023/10/10 07:53:41;;;;;;;5.95;3.65;;;20.30;54.30;;;;;;5111069;28;20173;-54
2023/10/10 07:56:09;;;;;;;6.28;3.78;;;20.40;54.40;;;;;;5110793;28;20188;-54
2023/10/10 07:58:44;;;;;;;6.38;4.05;;;20.50;54.30;;;;;;5110690;28;20209;-54
2023/10/10 08:01:16;;;;;;;5.90;3.75;;;20.60;53.80;;;;;;5110792;28;20635;-54
2023/10/10 08:03:45;;;;;;;7.18;3.80;;;20.70;53.50;;;;;;5110546;28;20238;-54
2023/10/10 08:06:12;;;;;;;6.93;3.85;;;20.90;53.20;;;;;;5114297;28;20186;-49
2023/10/10 08:08:40;;;;;;;8.43;3.95;;;21.00;52.90;;;;;;5113276;28;20221;-48
2023/10/10 08:11:12;;;;;;;8.02;3.92;;;21.10;52.60;;;;;;5113329;28;20190;-52
2023/10/10 08:13:41;;;;;;;7.72;3.92;;;21.20;52.40;;;;;;5110764;28;20178;-52
2023/10/10 08:16:09;;;;;;;7.93;3.95;;;21.20;52.20;;;;;;5109633;28;20204;-52
2023/10/10 08:18:52;;;;;;;6.63;3.78;;;21.30;52.00;;;;;;5110218;28;20205;-52
2023/10/10 08:21:22;;;;;;;6.30;3.45;;;21.40;51.90;;;;;;5110927;28;20220;-55
2023/10/10 08:23:56;;;;;;;4.45;3.40;;;21.50;51.70;;;;;;5110473;28;20247;-54
2023/10/10 08:26:26;;;;;;;6.55;3.60;;;21.60;51.50;;;;;;5110542;28;20215;-54
2023/10/10 08:28:54;;;;;;;5.40;3.65;;;21.70;51.30;;;;;;5108727;28;20587;-54
2023/10/10 08:31:22;;;;;;;4.40;3.17;;;21.80;51.00;;;;;;5110082;28;20660;-54
2023/10/10 08:33:50;;;;;;;6.93;3.63;;;21.80;51.00;;;;;;5096967;28;20201;-54
2023/10/10 08:36:24;;;;;;;4.13;2.95;;;21.90;51.00;;;;;;5096356;28;20194;-54
2023/10/10 08:38:53;;;;;;;5.50;3.47;;;21.90;51.00;;;;;;5096566;28;20270;-54
2023/10/10 08:41:22;;;;;;;3.95;2.90;;;22.00;50.90;;;;;;5094950;28;20217;-54
2023/10/10 08:43:53;;;;;;;4.32;2.85;;;22.00;50.60;;;;;;5096474;28;20193;-54
2023/10/10 08:46:21;;;;;;;5.03;3.10;;;22.10;50.60;;;;;;5096376;28;20185;-54
2023/10/10 08:48:48;;;;;;;3.80;2.95;;;22.10;50.40;;;;;;5097285;28;20210;-54
2023/10/10 08:51:17;;;;;;;4.30;2.80;;;22.20;50.30;;;;;;5096418;28;20240;-55
2023/10/10 08:53:44;;;;;;;4.75;2.70;;;22.30;50.20;;;;;;5096056;28;20727;-54
2023/10/10 08:56:14;;;;;;;5.78;2.90;;;22.30;50.60;;;;;;5096157;28;20216;-50
2023/10/10 08:58:42;;;;;;;6.18;2.95;;;22.30;49.90;;;;;;5095856;28;20217;-50
2023/10/10 09:01:09;;;;;;;3.38;2.58;;;22.30;49.80;;;;;;5096709;28;20259;-50
2023/10/10 09:03:41;;;;;;;4.13;2.85;;;22.40;49.80;;;;;;5095838;28;20186;-50
2023/10/10 09:06:17;;;;;;;5.13;3.00;;;22.40;49.60;;;;;;5097299;28;20170;-50
2023/10/10 09:08:44;;;;;;;4.50;2.70;;;22.50;49.50;;;;;;5095643;28;20799;-50
2023/10/10 09:11:13;;;;;;;3.45;2.85;;;22.50;49.30;;;;;;5094427;28;20662;-50
2023/10/10 09:13:51;;;;;;;3.65;2.42;;;22.60;49.20;;;;;;5095771;28;20193;-51
2023/10/10 09:16:21;;;;;;;4.68;2.75;;;22.60;49.10;;;;;;5095835;28;20654;-51
2023/10/10 09:19:08;;;;;;;3.72;3.00;;;22.70;49.00;;;;;;5094205;28;20218;-51
2023/10/10 09:21:46;;;;;;;3.85;2.70;;;22.80;48.90;;;;;;5094097;28;20222;-52
2023/10/10 09:24:27;;;;;;;3.42;2.58;;;22.80;48.70;;;;;;5095432;28;20166;-52
2023/10/10 09:26:58;;;;;;;4.28;2.85;;;22.90;48.60;;;;;;5095454;28;20170;-52
2023/10/10 09:29:32;;;;;;;4.07;2.80;;;22.90;48.50;;;;;;5096796;28;20214;-54
2023/10/10 09:32:00;;;;;;;6.07;3.10;;;23.00;48.30;;;;;;5094529;28;20208;-54
2023/10/10 09:34:35;;;;;;;4.05;2.90;;;23.00;48.30;;;;;;5095904;28;20243;-54
2023/10/10 09:37:07;;;;;;;3.78;2.95;;;23.00;48.20;;;;;;5095274;28;20174;-54
2023/10/10 09:39:37;;;;;;;4.32;2.60;;;23.00;48.20;;;;;;5095374;28;20218;-52
2023/10/10 09:42:23;;;;;;;3.88;2.55;;;23.10;48.30;;;;;;5093819;28;20211;-52
2023/10/10 09:47:43;;;;;;;4.50;2.72;;;23.10;48.30;;;;;;5094751;28;20576;-51
2023/10/10 09:52:58;;;;;;;4.32;2.80;;;23.10;48.30;;;;;;5095270;28;20171;-52
2023/10/10 09:58:24;;;;;;;4.32;2.90;;;23.10;48.20;;;;;;5084194;28;20218;-51
2023/10/10 10:00:52;;;;;;;5.53;3.00;;;23.10;48.20;;;;;;5094956;28;20174;-52
2023/10/10 10:03:35;;;;;;;6.75;2.95;;;23.10;48.30;;;;;;5094674;28;20588;-52
2023/10/10 10:06:27;;;;;;;5.85;2.70;;;23.10;48.30;;;;;;5093392;28;20193;-52
2023/10/10 10:09:08;;;;;;;3.53;2.55;;;23.10;48.30;;;;;;5094368;28;20678;-52
2023/10/10 10:11:41;;;;;;;4.07;2.85;;;23.10;48.30;;;;;;5096362;28;20171;-51
2023/10/10 10:14:17;;;;;;;3.67;2.53;;;23.10;48.30;;;;;;5094625;28;20179;-51
2023/10/10 10:16:47;;;;;;;4.72;2.75;;;23.10;48.30;;;;;;5094914;28;20185;-50
2023/10/10 10:19:17;;;;;;;3.75;2.50;;;23.10;48.30;;;;;;5093151;28;20230;-50
2023/10/10 10:21:55;;;;;;;4.10;3.03;;;23.10;48.30;;;;;;5092882;28;20247;-52
2023/10/10 10:24:33;;;;;;;4.30;2.55;;;23.00;48.20;;;;;;5094553;28;20174;-52
2023/10/10 10:27:21;;;;;;;5.00;2.70;;;23.00;48.20;;;;;;5094279;28;20178;-50
2023/10/10 10:29:56;;;;;;;3.63;2.78;;;23.00;48.30;;;;;;5092958;28;20202;-51
2023/10/10 10:32:24;;;;;;;4.72;2.70;;;23.00;48.40;;;;;;5092888;28;20204;-51
2023/10/10 10:34:56;;;;;;;4.05;2.80;;;23.00;48.50;;;;;;5093422;28;20194;-51
2023/10/10 10:37:28;;;;;;;2.97;2.47;;;22.90;48.40;;;;;;5094275;28;20567;-50
2023/10/10 10:40:23;;;;;;;3.97;2.53;;;22.90;48.50;;;;;;5094112;28;20170;-50
2023/10/10 10:42:51;;;;;;;3.22;2.30;;;22.90;48.50;;;;;;5093892;28;20202;-50
2023/10/10 10:45:33;;;;;;;3.90;2.70;;;22.90;48.60;;;;;;5092649;28;20311;-51
2023/10/10 10:48:05;;;;;;;3.08;2.40;;;22.90;48.60;;;;;;5092554;28;20312;-52
2023/10/10 10:50:45;;;;;;;2.90;2.40;;;22.90;48.60;;;;;;5094078;28;20646;-53
2023/10/10 10:53:30;;;;;;;4.05;2.85;;;22.90;48.60;;;;;;5094143;28;20167;-52
2023/10/10 10:56:37;;;;;;;4.03;2.67;;;22.90;48.70;;;;;;5094152;28;20239;-52
2023/10/10 10:59:19;;;;;;;3.35;2.53;;;22.90;48.70;;;;;;5093587;28;20210;-52
2023/10/10 11:01:51;;;;;;;3.83;2.60;;;22.90;48.70;;;;;;5093694;28;20190;-52
2023/10/10 11:07:07;;;;;;;3.35;2.60;;;22.80;48.80;;;;;;5080181;28;20292;-52
2023/10/10 11:09:36;;;;;;;3.17;2.67;;;22.80;49.00;;;;;;5093464;28;20233;-52
2023/10/10 11:12:04;;;;;;;4.30;2.70;;;22.70;49.70;;;;;;5093848;28;20186;-52
2023/10/10 11:14:31;;;;;;;4.35;2.75;;;22.70;49.10;;;;;;5093488;28;20193;-52
2023/10/10 11:16:59;;;;;;;3.10;2.63;;;22.80;49.10;;;;;;5093552;28;20258;-52
2023/10/10 11:19:39;;;;;;;3.15;2.50;;;22.80;49.00;;;;;;5094144;28;20209;-50
2023/10/10 11:22:12;;;;;;;3.40;2.50;;;22.80;49.00;;;;;;5092102;28;20347;-51
2023/10/10 11:24:40;;;;;;;3.20;2.50;;;22.90;49.00;;;;;;5093795;28;20627;-50
2023/10/10 11:29:52;;;;;;;3.28;2.50;;;22.90;48.90;;;;;;5096089;28;20253;-50
2023/10/10 11:32:24;;;;;;;2.60;2.40;;;22.90;48.90;;;;;;5097602;28;20236;-49
2023/10/10 11:34:55;;;;;;;3.53;2.60;;;23.00;48.90;;;;;;5095104;28;20201;-53
2023/10/10 11:37:26;;;;;;;3.13;2.45;;;22.90;48.80;;;;;;5093422;28;20177;-52
2023/10/10 11:40:19;;;;;;;3.00;2.70;;;23.00;48.90;;;;;;5093409;28;20227;-53
2023/10/10 11:42:47;;;;;;;3.03;2.30;;;23.00;48.90;;;;;;5093232;28;20305;-52
2023/10/10 11:45:17;;;;;;;3.58;2.45;;;23.00;48.90;;;;;;5093406;28;20193;-52
2023/10/10 11:47:46;;;;;;;3.63;2.60;;;23.00;48.90;;;;;;5093434;28;20773;-51
2023/10/10 11:50:15;;;;;;;4.05;2.42;;;23.00;48.90;;;;;;5093378;28;20712;-52
2023/10/10 11:52:52;;;;;;;3.95;2.67;;;23.00;48.90;;;;;;5091972;28;20229;-52
2023/10/10 11:55:20;;;;;;;3.65;2.58;;;23.00;48.90;;;;;;5093645;28;20186;-49
2023/10/10 11:57:49;;;;;;;2.90;2.42;;;23.00;48.90;;;;;;5094430;28;20271;-48
2023/10/10 12:00:22;;;;;;;2.90;2.50;;;23.00;48.90;;;;;;5094558;28;20183;-50
2023/10/10 12:02:51;;;;;;;3.28;2.47;;;23.00;48.90;;;;;;5092407;28;20682;-50
2023/10/10 12:05:47;;;;;;;3.63;2.33;;;23.00;48.90;;;;;;5093966;28;20190;-54
2023/10/10 12:08:15;;;;;;;2.78;2.42;;;23.00;49.00;;;;;;5093790;28;20702;-51
2023/10/10 12:10:47;;;;;;;4.43;2.65;;;23.00;49.00;;;;;;5095782;28;20540;-51
2023/10/10 12:13:33;;;;;;;2.75;2.30;;;23.00;49.00;;;;;;5096984;28;20197;-51
2023/10/10 12:16:01;;;;;;;2.60;2.38;;;23.00;49.00;;;;;;5095765;28;20201;-51
2023/10/10 12:18:31;;;;;;;3.05;2.35;;;23.00;49.00;;;;;;5096739;28;20206;-51
2023/10/10 12:21:01;;;;;;;2.55;2.15;;;23.00;49.10;;;;;;5096752;28;20277;-51
2023/10/10 12:23:28;;;;;;;3.13;2.22;;;23.00;49.10;;;;;;5096689;28;20275;-51
2023/10/10 12:25:55;;;;;;;4.07;2.65;;;23.00;49.10;;;;;;5096664;28;20197;-52
2023/10/10 12:28:22;;;;;;;2.63;2.38;;;23.00;49.10;;;;;;5096517;28;20281;-52
2023/10/10 12:30:49;;;;;;;3.97;2.53;;;23.00;49.10;;;;;;5095247;28;20198;-52
2023/10/10 12:33:16;;;;;;;2.83;2.40;;;23.00;49.20;;;;;;5095180;28;20190;-51
2023/10/10 12:35:47;;;;;;;2.97;2.30;;;23.00;49.20;;;;;;5096609;28;20182;-52
2023/10/10 12:38:20;;;;;;;2.70;2.30;;;22.90;49.20;;;;;;5096345;28;20202;-51
2023/10/10 12:40:48;;;;;;;3.83;2.85;;;23.00;49.30;;;;;;5096685;28;20232;-51
2023/10/10 12:43:16;;;;;;;2.63;2.25;;;22.90;49.20;;;;;;5096780;28;20206;-51
2023/10/10 12:45:45;;;;;;;3.03;2.50;;;22.90;49.20;;;;;;5096503;28;20276;-51
2023/10/10 12:48:20;;;;;;;3.25;2.20;;;22.90;49.30;;;;;;5096146;28;20214;-51
2023/10/10 12:50:50;;;;;;;3.38;2.72;;;22.90;49.30;;;;;;5096421;28;20226;-51
2023/10/10 12:53:19;;;;;;;2.53;2.30;;;22.90;49.40;;;;;;5096017;28;20188;-51
2023/10/10 12:55:51;;;;;;;2.88;2.20;;;22.90;49.30;;;;;;5095985;28;20259;-51
2023/10/10 12:58:20;;;;;;;3.17;2.50;;;22.90;49.40;;;;;;5094693;28;20264;-52
2023/10/10 13:00:51;;;;;;;3.20;2.13;;;22.80;49.30;;;;;;5094636;28;20197;-52
2023/10/10 13:03:19;;;;;;;2.42;2.08;;;22.80;49.40;;;;;;5094544;28;20218;-51
2023/10/10 13:05:52;;;;;;;3.35;2.30;;;22.80;49.60;;;;;;5095858;28;20273;-52
2023/10/10 13:08:20;;;;;;;4.07;2.50;;;22.80;49.40;;;;;;5095956;28;20232;-52
2023/10/10 13:10:54;;;;;;;3.67;2.88;;;22.80;49.50;;;;;;5095292;28;20279;-51
2023/10/10 13:13:27;;;;;;;3.78;2.50;;;22.80;49.50;;;;;;5094421;28;20174;-52
2023/10/10 13:16:07;;;;;;;2.30;2.10;;;22.80;49.50;;;;;;5094652;28;20561;-51
2023/10/10 13:18:35;;;;;;;2.95;2.40;;;22.80;49.60;;;;;;5095761;28;20688;-51
2023/10/10 13:21:04;;;;;;;2.35;2.05;;;22.80;49.60;;;;;;5095288;28;20194;-52
2023/10/10 13:23:31;;;;;;;2.63;2.20;;;22.80;49.60;;;;;;5095456;28;20210;-51
2023/10/10 13:25:58;;;;;;;2.58;2.08;;;22.80;49.70;;;;;;5095573;28;20197;-51
2023/10/10 13:28:25;;;;;;;2.40;2.20;;;22.80;50.30;;;;;;5095374;28;20212;-51
2023/10/10 13:30:52;;;;;;;2.33;2.10;;;22.70;49.60;;;;;;5094063;28;20220;-52
2023/10/10 13:33:21;;;;;;;2.90;2.50;;;22.70;49.60;;;;;;5095292;28;20273;-52
2023/10/10 13:35:48;;;;;;;3.28;2.40;;;22.70;49.70;;;;;;5095542;28;20270;-52
2023/10/10 13:38:17;;;;;;;2.70;2.10;;;22.70;49.80;;;;;;5094007;28;20214;-52
2023/10/10 13:40:46;;;;;;;3.10;2.50;;;22.70;49.90;;;;;;5095426;28;20273;-51
2023/10/10 13:43:16;;;;;;;3.10;2.33;;;22.70;49.90;;;;;;5094024;28;20218;-51
2023/10/10 13:45:45;;;;;;;3.90;2.58;;;22.70;49.90;;;;;;5093804;28;20255;-52
2023/10/10 13:48:14;;;;;;;2.28;1.92;;;22.70;49.80;;;;;;5094914;28;20208;-51
2023/10/10 13:50:45;;;;;;;3.28;2.40;;;22.80;49.80;;;;;;5095203;28;20182;-51
2023/10/10 13:53:13;;;;;;;3.38;2.70;;;22.80;49.80;;;;;;5094921;28;20178;-52
2023/10/10 13:55:42;;;;;;;2.65;2.30;;;22.80;49.80;;;;;;5094834;28;20286;-51
2023/10/10 13:58:12;;;;;;;3.53;2.30;;;22.80;49.70;;;;;;5094737;28;20730;-51
2023/10/10 14:00:41;;;;;;;2.50;2.30;;;22.80;49.60;;;;;;5093531;28;20228;-52
2023/10/10 14:03:08;;;;;;;2.70;2.30;;;22.80;49.60;;;;;;5094694;28;20206;-51
2023/10/10 14:05:36;;;;;;;2.92;2.28;;;22.90;49.70;;;;;;5094663;28;20200;-51
2023/10/10 14:08:07;;;;;;;2.33;1.90;;;22.90;50.30;;;;;;5093307;28;20210;-52
2023/10/10 14:10:41;;;;;;;2.65;2.30;;;22.90;49.60;;;;;;5093601;28;20202;-51
2023/10/10 14:13:19;;;;;;;2.72;2.10;;;22.90;49.60;;;;;;5093219;28;20182;-51
2023/10/10 14:15:54;;;;;;;2.30;2.10;;;22.90;49.60;;;;;;5094517;28;20235;-51
2023/10/10 14:18:23;;;;;;;2.67;2.08;;;22.90;49.60;;;;;;5094490;28;20209;-52
2023/10/10 14:20:51;;;;;;;3.08;2.47;;;22.90;49.60;;;;;;5094276;28;20209;-52
2023/10/10 14:23:20;;;;;;;2.83;2.15;;;22.80;49.50;;;;;;5093044;28;20210;-51
2023/10/10 14:25:47;;;;;;;2.42;2.10;;;22.80;49.60;;;;;;5094342;28;20186;-52
2023/10/10 14:28:17;;;;;;;3.53;2.17;;;22.90;49.60;;;;;;5094417;28;20214;-52
2023/10/10 14:30:48;;;;;;;2.90;2.30;;;22.90;49.70;;;;;;5094001;28;20218;-51
2023/10/10 14:33:17;;;;;;;3.47;2.25;;;22.90;49.70;;;;;;5092911;28;20285;-51
2023/10/10 14:35:45;;;;;;;2.80;2.30;;;22.80;49.60;;;;;;5094371;28;20192;-52
2023/10/10 14:38:15;;;;;;;2.90;2.15;;;22.80;49.60;;;;;;5092717;28;20222;-52
2023/10/10 14:40:43;;;;;;;2.33;1.88;;;22.80;49.70;;;;;;5094650;28;20235;-52
2023/10/10 14:43:11;;;;;;;2.65;2.17;;;22.90;49.80;;;;;;5093906;28;20216;-51
2023/10/10 14:45:43;;;;;;;2.30;2.10;;;22.80;49.70;;;;;;5092702;28;20780;-51
2023/10/10 14:48:18;;;;;;;2.20;2.00;;;22.80;49.80;;;;;;5094016;28;20217;-51
2023/10/10 14:50:52;;;;;;;2.28;1.98;;;22.80;49.80;;;;;;5094558;28;20586;-52
2023/10/10 14:53:22;;;;;;;3.85;2.53;;;22.80;49.80;;;;;;5094147;28;20247;-51
2023/10/10 14:55:51;;;;;;;2.20;2.00;;;22.80;49.80;;;;;;5093744;28;20182;-51
2023/10/10 14:58:21;;;;;;;2.55;2.28;;;22.80;49.90;;;;;;5093691;28;20210;-51
2023/10/10 15:00:52;;;;;;;3.15;2.20;;;22.80;49.90;;;;;;5093773;28;20206;-51
2023/10/10 15:03:20;;;;;;;2.30;2.10;;;22.70;49.90;;;;;;5092340;28;20323;-51
2023/10/10 15:05:50;;;;;;;2.90;2.10;;;22.70;50.00;;;;;;5093793;28;20182;-52
2023/10/10 15:08:17;;;;;;;3.15;2.33;;;22.70;50.00;;;;;;5093574;28;20615;-52
2023/10/10 15:10:44;;;;;;;2.90;2.17;;;22.70;50.10;;;;;;5092359;28;20292;-52
2023/10/10 15:13:14;;;;;;;3.45;2.65;;;22.70;50.10;;;;;;5093555;28;20186;-51
2023/10/10 15:15:45;;;;;;;2.47;2.10;;;22.70;50.20;;;;;;5093837;28;20206;-52
2023/10/10 15:18:15;;;;;;;3.05;2.45;;;22.70;50.30;;;;;;5093749;28;20715;-51
2023/10/10 15:20:46;;;;;;;2.47;2.28;;;22.60;50.20;;;;;;5093417;28;20185;-52
2023/10/10 15:23:18;;;;;;;3.78;2.30;;;22.60;50.30;;;;;;5093539;28;20194;-52